Rockaway Beach, Oregon
Current Conditions -  °F | °C
As of 4:55 PM on Saturday 20 Dec 2014 (Local Time) from KTMK Reporting Station
Light Rain Light Rain  
Wind Chill: 57°   Ceiling: 1400
Heat Index: 57°   Visibility: 4mi
Dew Point: 55°   Wind: 17mph
Humidity: 94%   Direction: 220°SW
Pressure: 29.66"   Gusts: 32mph
Location:  45.61°N, 123.94°W
Report Text: KTMK 210055Z AUTO 22015G28KT 4SM -RA OVC014 14/13 A2966 RMK AO2 P0004
Loading
Personal Weather Stations






























Interactive Weather Map New forecast layout! Learn more

10-Day Weather Forecast

Advertisements
Track Severe Weather on mobile